createdAt,value
2022-08-05T00:09:12.958Z,17263.82812
2022-08-05T00:24:24.377Z,17293.10547
2022-08-05T00:39:27.499Z,15350.92578
2022-08-05T00:54:39.416Z,12456.63184
2022-08-05T01:09:41.774Z,7330.62012
2022-08-05T01:24:44.051Z,6498.87646
2022-08-05T01:39:47.902Z,6649.60986
2022-08-05T01:54:52.808Z,1350.09204
2022-08-05T02:09:55.305Z,1303.46228
2022-08-05T02:24:57.585Z,892.47046
2022-08-05T02:40:02.426Z,550.88092
2022-08-05T02:55:05.647Z,383.88159
2022-08-05T03:10:13.239Z,204.95374
2022-08-05T03:26:03.881Z,73.73997
2022-08-05T03:41:38.694Z,10.84411
2022-08-05T03:56:47.937Z,1.08441
2022-08-05T04:11:52.822Z,0
2022-08-05T04:26:55.203Z,0
2022-08-05T04:42:01.787Z,0
2022-08-05T04:57:06.076Z,0
2022-08-05T05:12:08.336Z,0
2022-08-05T05:27:10.780Z,0
2022-08-05T05:42:16.949Z,0
2022-08-05T05:57:23.306Z,0
2022-08-05T06:12:27.143Z,0
2022-08-05T06:28:10.719Z,0
2022-08-05T06:43:51.484Z,0
2022-08-05T06:59:01.766Z,0
2022-08-05T07:14:04.277Z,0
2022-08-05T07:29:06.626Z,0
2022-08-05T07:44:14.014Z,0
2022-08-05T07:59:23.382Z,0
2022-08-05T08:14:33.876Z,0
2022-08-05T08:30:06.513Z,0
2022-08-05T08:45:30.047Z,0
2022-08-05T09:00:33.118Z,0
2022-08-05T09:15:37.090Z,0
2022-08-05T09:30:39.846Z,0
2022-08-05T09:46:06.379Z,0
2022-08-05T10:01:14.774Z,0
2022-08-05T10:16:18.085Z,0
2022-08-05T10:33:02.201Z,0
2022-08-05T10:48:31.332Z,0
2022-08-05T11:03:35.914Z,0
2022-08-05T11:18:38.982Z,0
2022-08-05T11:33:49.371Z,0
2022-08-05T11:48:51.638Z,0
2022-08-05T12:03:55.740Z,3.25323
2022-08-05T12:18:58.513Z,23.85705
2022-08-05T12:34:00.708Z,92.17496
2022-08-05T12:49:05.870Z,194.10962
2022-08-05T13:04:20.872Z,299.29752
2022-08-05T13:19:23.870Z,725.47113
2022-08-05T13:34:26.420Z,1355.51404
2022-08-05T13:49:28.706Z,1534.44189
2022-08-05T14:04:37.661Z,1773.01245
2022-08-05T14:19:54.114Z,2650.30103
2022-08-05T14:34:58.375Z,3216.36377
2022-08-05T14:50:04.875Z,3431.07715
2022-08-05T15:05:20.064Z,3114.4292
2022-08-05T15:20:24.873Z,2216.53662
2022-08-05T15:35:27.543Z,4616.33887
2022-08-05T15:50:38.562Z,7652.69043
2022-08-05T16:05:41.717Z,8171.03906
2022-08-05T16:20:44.065Z,7343.6333
2022-08-05T16:35:52.795Z,7151.69238
2022-08-05T16:50:55.629Z,6882.7583
2022-08-05T17:05:59.438Z,6909.86865
2022-08-05T17:21:02.088Z,6681.05762
2022-08-05T17:36:32.799Z,6659.36963
2022-08-05T17:51:40.379Z,6438.1499
2022-08-05T18:06:43.005Z,6556.35059
2022-08-05T18:22:09.297Z,6726.60303
2022-08-05T18:37:33.402Z,5543.51025
2022-08-05T18:52:37.385Z,6324.28662
2022-08-05T19:07:45.417Z,6589.96729
2022-08-05T19:22:49.186Z,5818.95068
2022-08-05T19:38:06.187Z,4687.90967
2022-08-05T19:53:10.964Z,7138.6792
2022-08-05T20:08:13.273Z,5972.93701
2022-08-05T20:23:16.642Z,7447.73633
2022-08-05T20:38:26.702Z,6489.11719
2022-08-05T20:53:36.494Z,7668.95654
2022-08-05T21:08:42.385Z,6921.79688
2022-08-05T21:23:46.616Z,6734.19385
2022-08-05T21:38:49.009Z,8052.83789
2022-08-05T21:53:59.453Z,7863.06592
2022-08-05T22:09:14.575Z,11571.75293
2022-08-05T22:24:40.145Z,9887.66211
2022-08-05T22:39:43.625Z,12785.20898
2022-08-05T22:54:48.974Z,13487.90723
2022-08-05T23:09:56.993Z,14467.13086
2022-08-05T23:25:04.044Z,15231.64062
2022-08-05T23:40:10.889Z,16215.20117
2022-08-05T23:55:13.975Z,16900.54883
